LOT2WY EYVI-EPWA
Flight info
| Callsign | LOT2WY |
|---|---|
| Flight time | 0h 42m |
| Altitude | 36000 |
| Route | UPASI DCT TUNGA DCT SUWGI M857 GERVI P851 NEPOX |
| Aircraft | B738/M-SDE2E3FGHIRWXY/LB1 |
Departure
| Time | 2026-04-30 13:23 |
|---|---|
| Airport | Vilnius International Airport (EYVI) |
Arrival
| Time | 2026-04-30 14:05 |
|---|---|
| Airport | Warsaw Chopin Airport (EPWA) |
| Time | Latitude | Longitude | Altitude | Speed | Heading |
|---|---|---|---|---|---|
| 2026-04-30 13:00 | 54.64234 | 25.28203 | 636 ft | 0 kts | 360° |
| 2026-04-30 13:14 | 54.64202 | 25.28211 | 639 ft | 4 kts | 334° |
| 2026-04-30 13:15 | 54.64184 | 25.28234 | 637 ft | 3 kts | 304° |
| 2026-04-30 13:15 | 54.64177 | 25.28273 | 639 ft | 1 kts | 257° |
| 2026-04-30 13:17 | 54.64176 | 25.28268 | 640 ft | 2 kts | 257° |
| 2026-04-30 13:18 | 54.64165 | 25.28197 | 638 ft | 9 kts | 247° |
| 2026-04-30 13:18 | 54.64036 | 25.28198 | 635 ft | 10 kts | 167° |
| 2026-04-30 13:18 | 54.63963 | 25.28226 | 634 ft | 13 kts | 167° |
| 2026-04-30 13:19 | 54.63851 | 25.28270 | 633 ft | 20 kts | 167° |
| 2026-04-30 13:19 | 54.63717 | 25.28321 | 625 ft | 16 kts | 168° |
| 2026-04-30 13:19 | 54.63594 | 25.28368 | 623 ft | 19 kts | 169° |
| 2026-04-30 13:19 | 54.63459 | 25.28301 | 609 ft | 21 kts | 201° |
| 2026-04-30 13:20 | 54.63325 | 25.28209 | 619 ft | 20 kts | 201° |
| 2026-04-30 13:20 | 54.63195 | 25.28118 | 610 ft | 20 kts | 202° |
| 2026-04-30 13:20 | 54.63065 | 25.28028 | 606 ft | 21 kts | 201° |
| 2026-04-30 13:20 | 54.62934 | 25.27937 | 603 ft | 20 kts | 202° |
| 2026-04-30 13:21 | 54.62807 | 25.27849 | 600 ft | 19 kts | 201° |
| 2026-04-30 13:21 | 54.62684 | 25.27764 | 600 ft | 19 kts | 203° |
| 2026-04-30 13:21 | 54.62560 | 25.27677 | 602 ft | 19 kts | 202° |
| 2026-04-30 13:22 | 54.62428 | 25.27888 | 603 ft | 14 kts | 47° |
| 2026-04-30 13:22 | 54.62520 | 25.27959 | 601 ft | 17 kts | 21° |
| 2026-04-30 13:22 | 54.63555 | 25.28671 | 626 ft | 147 kts | 17° |
| 2026-04-30 13:23 | 54.64541 | 25.29383 | 1323 ft | 153 kts | 18° |
| 2026-04-30 13:23 | 54.66557 | 25.30763 | 2964 ft | 167 kts | 17° |
| 2026-04-30 13:24 | 54.68923 | 25.32360 | 4342 ft | 192 kts | 19° |
| 2026-04-30 13:24 | 54.71616 | 25.34199 | 5104 ft | 226 kts | 19° |
| 2026-04-30 13:25 | 54.74743 | 25.35546 | 6188 ft | 249 kts | 345° |
| 2026-04-30 13:25 | 54.77179 | 25.31421 | 7883 ft | 263 kts | 291° |
| 2026-04-30 13:26 | 54.75922 | 25.21767 | 10233 ft | 295 kts | 248° |
| 2026-04-30 13:26 | 54.73965 | 25.15153 | 11160 ft | 325 kts | 248° |
| 2026-04-30 13:27 | 54.71858 | 25.07942 | 12251 ft | 345 kts | 248° |
| 2026-04-30 13:28 | 54.68590 | 24.96508 | 14452 ft | 361 kts | 249° |
| 2026-04-30 13:28 | 54.66353 | 24.88601 | 15879 ft | 370 kts | 249° |
| 2026-04-30 13:28 | 54.65215 | 24.84575 | 16605 ft | 375 kts | 249° |
| 2026-04-30 13:29 | 54.62906 | 24.76421 | 18053 ft | 386 kts | 249° |
| 2026-04-30 13:29 | 54.60515 | 24.67998 | 19394 ft | 396 kts | 249° |
| 2026-04-30 13:30 | 54.56791 | 24.54946 | 21252 ft | 411 kts | 249° |
| 2026-04-30 13:31 | 54.54227 | 24.46002 | 22427 ft | 422 kts | 249° |
| 2026-04-30 13:31 | 54.50259 | 24.32226 | 24102 ft | 437 kts | 249° |
| 2026-04-30 13:32 | 54.47517 | 24.22758 | 25041 ft | 446 kts | 250° |
| 2026-04-30 13:32 | 54.44713 | 24.13113 | 25934 ft | 456 kts | 250° |
| 2026-04-30 13:33 | 54.41843 | 24.03280 | 26804 ft | 464 kts | 250° |
| 2026-04-30 13:33 | 54.38911 | 23.93276 | 27630 ft | 473 kts | 250° |
| 2026-04-30 13:34 | 54.37421 | 23.88210 | 28026 ft | 478 kts | 250° |
| 2026-04-30 13:34 | 54.32854 | 23.72748 | 29187 ft | 491 kts | 250° |
| 2026-04-30 13:35 | 54.31320 | 23.67576 | 29574 ft | 495 kts | 250° |
| 2026-04-30 13:35 | 54.28164 | 23.56974 | 30322 ft | 503 kts | 250° |
| 2026-04-30 13:36 | 54.24955 | 23.46245 | 30958 ft | 509 kts | 250° |
| 2026-04-30 13:36 | 54.23336 | 23.40849 | 31302 ft | 510 kts | 249° |
| 2026-04-30 13:36 | 54.19995 | 23.30074 | 31935 ft | 516 kts | 247° |
| 2026-04-30 13:37 | 54.18257 | 23.24710 | 32295 ft | 516 kts | 247° |
| 2026-04-30 13:37 | 54.14793 | 23.14068 | 33177 ft | 513 kts | 246° |
| 2026-04-30 13:38 | 54.11354 | 23.03425 | 33961 ft | 512 kts | 246° |
| 2026-04-30 13:38 | 54.09616 | 22.98119 | 34303 ft | 514 kts | 242° |
| 2026-04-30 13:38 | 54.04439 | 22.89715 | 35050 ft | 519 kts | 208° |
| 2026-04-30 13:39 | 53.97741 | 22.86176 | 35983 ft | 502 kts | 188° |
| 2026-04-30 13:39 | 53.90883 | 22.83845 | 36392 ft | 506 kts | 189° |
| 2026-04-30 13:40 | 53.87431 | 22.82595 | 36407 ft | 508 kts | 189° |
| 2026-04-30 13:40 | 53.80552 | 22.79985 | 36382 ft | 503 kts | 190° |
| 2026-04-30 13:41 | 53.73784 | 22.77238 | 36401 ft | 500 kts | 193° |
| 2026-04-30 13:41 | 53.67116 | 22.73843 | 36410 ft | 500 kts | 195° |
| 2026-04-30 13:42 | 53.60500 | 22.70349 | 36205 ft | 504 kts | 195° |
| 2026-04-30 13:42 | 53.57140 | 22.68610 | 35734 ft | 504 kts | 194° |
| 2026-04-30 13:42 | 53.50429 | 22.65205 | 34580 ft | 504 kts | 194° |
| 2026-04-30 13:43 | 53.47062 | 22.63520 | 33842 ft | 506 kts | 193° |
| 2026-04-30 13:43 | 53.43686 | 22.61835 | 33349 ft | 503 kts | 193° |
| 2026-04-30 13:43 | 53.40339 | 22.60167 | 32867 ft | 499 kts | 193° |
| 2026-04-30 13:43 | 53.37015 | 22.58511 | 32398 ft | 496 kts | 193° |
| 2026-04-30 13:44 | 53.33795 | 22.56657 | 31813 ft | 498 kts | 201° |
| 2026-04-30 13:44 | 53.30730 | 22.53975 | 31046 ft | 496 kts | 211° |
| 2026-04-30 13:44 | 53.27792 | 22.50960 | 30156 ft | 496 kts | 212° |
| 2026-04-30 13:44 | 53.24887 | 22.47906 | 29347 ft | 490 kts | 212° |
| 2026-04-30 13:45 | 53.19200 | 22.41954 | 28062 ft | 473 kts | 212° |
| 2026-04-30 13:45 | 53.16421 | 22.39093 | 27406 ft | 466 kts | 212° |
| 2026-04-30 13:45 | 53.13674 | 22.36291 | 26749 ft | 459 kts | 212° |
| 2026-04-30 13:46 | 53.10962 | 22.33543 | 26111 ft | 453 kts | 212° |
| 2026-04-30 13:46 | 53.08324 | 22.30881 | 25510 ft | 446 kts | 211° |
| 2026-04-30 13:46 | 53.05681 | 22.28220 | 24914 ft | 440 kts | 211° |
| 2026-04-30 13:46 | 53.03070 | 22.25595 | 24323 ft | 434 kts | 212° |
| 2026-04-30 13:47 | 53.00506 | 22.23020 | 23710 ft | 428 kts | 212° |
| 2026-04-30 13:47 | 52.97976 | 22.20482 | 23034 ft | 421 kts | 212° |
| 2026-04-30 13:47 | 52.95481 | 22.17982 | 22382 ft | 416 kts | 212° |
| 2026-04-30 13:47 | 52.93024 | 22.15523 | 21726 ft | 410 kts | 212° |
| 2026-04-30 13:48 | 52.90594 | 22.13093 | 21089 ft | 405 kts | 212° |
| 2026-04-30 13:48 | 52.88198 | 22.10702 | 20463 ft | 400 kts | 212° |
| 2026-04-30 13:48 | 52.85859 | 22.08370 | 19873 ft | 394 kts | 212° |
| 2026-04-30 13:48 | 52.83521 | 22.06042 | 19281 ft | 389 kts | 212° |
| 2026-04-30 13:49 | 52.81214 | 22.03747 | 18699 ft | 384 kts | 212° |
| 2026-04-30 13:49 | 52.78936 | 22.01484 | 18046 ft | 380 kts | 212° |
| 2026-04-30 13:49 | 52.76671 | 21.99237 | 17487 ft | 379 kts | 212° |
| 2026-04-30 13:49 | 52.74412 | 21.96998 | 17056 ft | 377 kts | 212° |
| 2026-04-30 13:50 | 52.72174 | 21.94783 | 16645 ft | 374 kts | 212° |
| 2026-04-30 13:50 | 52.67731 | 21.90394 | 15870 ft | 369 kts | 212° |
| 2026-04-30 13:50 | 52.65541 | 21.88234 | 15482 ft | 366 kts | 212° |
| 2026-04-30 13:51 | 52.63362 | 21.86088 | 15102 ft | 364 kts | 212° |
| 2026-04-30 13:51 | 52.61198 | 21.83959 | 14727 ft | 361 kts | 212° |
| 2026-04-30 13:51 | 52.59043 | 21.81842 | 14352 ft | 359 kts | 211° |
| 2026-04-30 13:51 | 52.56928 | 21.79765 | 13952 ft | 357 kts | 212° |
| 2026-04-30 13:52 | 52.54795 | 21.77674 | 13536 ft | 355 kts | 212° |
| 2026-04-30 13:52 | 52.52680 | 21.75603 | 13154 ft | 352 kts | 212° |
| 2026-04-30 13:52 | 52.50585 | 21.73554 | 12771 ft | 349 kts | 212° |
| 2026-04-30 13:52 | 52.48502 | 21.71518 | 12401 ft | 346 kts | 212° |
| 2026-04-30 13:53 | 52.47135 | 21.70184 | 12155 ft | 344 kts | 212° |
| 2026-04-30 13:53 | 52.45085 | 21.68185 | 11789 ft | 341 kts | 212° |
| 2026-04-30 13:53 | 52.43054 | 21.66205 | 11426 ft | 339 kts | 212° |
| 2026-04-30 13:53 | 52.41032 | 21.64237 | 11065 ft | 336 kts | 212° |
| 2026-04-30 13:54 | 52.38380 | 21.61661 | 10712 ft | 329 kts | 212° |
| 2026-04-30 13:54 | 52.37065 | 21.60384 | 10625 ft | 322 kts | 212° |
| 2026-04-30 13:54 | 52.35186 | 21.58562 | 10472 ft | 306 kts | 212° |
| 2026-04-30 13:54 | 52.33399 | 21.56833 | 10295 ft | 292 kts | 212° |
| 2026-04-30 13:55 | 52.31673 | 21.55161 | 9981 ft | 284 kts | 212° |
| 2026-04-30 13:55 | 52.29986 | 21.53529 | 9468 ft | 286 kts | 212° |
| 2026-04-30 13:55 | 52.28278 | 21.51875 | 9134 ft | 287 kts | 212° |
| 2026-04-30 13:55 | 52.26555 | 21.50209 | 8828 ft | 286 kts | 212° |
| 2026-04-30 13:56 | 52.24846 | 21.48560 | 8535 ft | 285 kts | 212° |
| 2026-04-30 13:56 | 52.23141 | 21.46918 | 8261 ft | 284 kts | 211° |
| 2026-04-30 13:56 | 52.21445 | 21.45283 | 7970 ft | 283 kts | 212° |
| 2026-04-30 13:56 | 52.19757 | 21.43657 | 7690 ft | 281 kts | 212° |
| 2026-04-30 13:57 | 52.18079 | 21.42044 | 7419 ft | 280 kts | 212° |
| 2026-04-30 13:57 | 52.16399 | 21.40428 | 7156 ft | 279 kts | 212° |
| 2026-04-30 13:57 | 52.14729 | 21.38825 | 6895 ft | 277 kts | 211° |
| 2026-04-30 13:57 | 52.13075 | 21.37240 | 6651 ft | 276 kts | 212° |
| 2026-04-30 13:58 | 52.11447 | 21.35680 | 6383 ft | 274 kts | 212° |
| 2026-04-30 13:58 | 52.08169 | 21.32540 | 5859 ft | 272 kts | 212° |
| 2026-04-30 13:58 | 52.06548 | 21.30992 | 5596 ft | 267 kts | 211° |
| 2026-04-30 13:59 | 52.04976 | 21.29492 | 5333 ft | 258 kts | 211° |
| 2026-04-30 13:59 | 52.03456 | 21.28048 | 5186 ft | 249 kts | 212° |
| 2026-04-30 13:59 | 52.02034 | 21.26562 | 5040 ft | 236 kts | 226° |
| 2026-04-30 13:59 | 52.01195 | 21.24401 | 5014 ft | 222 kts | 255° |
| 2026-04-30 14:00 | 52.00990 | 21.21957 | 5004 ft | 217 kts | 275° |
| 2026-04-30 14:00 | 52.01126 | 21.17112 | 4997 ft | 213 kts | 276° |
| 2026-04-30 14:00 | 52.01187 | 21.14761 | 4860 ft | 205 kts | 276° |
| 2026-04-30 14:01 | 52.01254 | 21.12420 | 4397 ft | 207 kts | 279° |
| 2026-04-30 14:01 | 52.01807 | 21.10364 | 3893 ft | 199 kts | 319° |
| 2026-04-30 14:01 | 52.02909 | 21.09079 | 3430 ft | 199 kts | 326° |
| 2026-04-30 14:01 | 52.04031 | 21.07793 | 3023 ft | 195 kts | 326° |
| 2026-04-30 14:02 | 52.05165 | 21.06702 | 2766 ft | 186 kts | 332° |
| 2026-04-30 14:02 | 52.06287 | 21.05726 | 2540 ft | 181 kts | 334° |
| 2026-04-30 14:02 | 52.07375 | 21.04794 | 2291 ft | 170 kts | 333° |
| 2026-04-30 14:02 | 52.08368 | 21.03911 | 2062 ft | 155 kts | 333° |
| 2026-04-30 14:03 | 52.09286 | 21.03106 | 1811 ft | 146 kts | 336° |
| 2026-04-30 14:03 | 52.10159 | 21.02363 | 1606 ft | 139 kts | 332° |
| 2026-04-30 14:03 | 52.10998 | 21.01605 | 1461 ft | 140 kts | 333° |
| 2026-04-30 14:03 | 52.11840 | 21.00857 | 1211 ft | 133 kts | 333° |
| 2026-04-30 14:04 | 52.12644 | 21.00168 | 973 ft | 132 kts | 333° |
| 2026-04-30 14:04 | 52.13464 | 20.99428 | 797 ft | 136 kts | 331° |
| 2026-04-30 14:04 | 52.14301 | 20.98706 | 627 ft | 134 kts | 331° |
| 2026-04-30 14:04 | 52.15123 | 20.97980 | 460 ft | 135 kts | 330° |
| 2026-04-30 14:05 | 52.15946 | 20.97263 | 350 ft | 129 kts | 330° |
| 2026-04-30 14:05 | 52.16593 | 20.96694 | 339 ft | 77 kts | 332° |
| 2026-04-30 14:05 | 52.16832 | 20.96522 | 334 ft | 22 kts | 349° |
| 2026-04-30 14:05 | 52.16959 | 20.96510 | 335 ft | 14 kts | 4° |
| 2026-04-30 14:06 | 52.17056 | 20.96522 | 337 ft | 14 kts | 12° |
| 2026-04-30 14:06 | 52.17018 | 20.96723 | 336 ft | 13 kts | 151° |
| 2026-04-30 14:07 | 52.16866 | 20.96856 | 336 ft | 12 kts | 153° |
| 2026-04-30 14:07 | 52.16789 | 20.96922 | 334 ft | 14 kts | 152° |
| 2026-04-30 14:07 | 52.16689 | 20.97014 | 335 ft | 15 kts | 136° |
| 2026-04-30 14:08 | 52.16791 | 20.97161 | 338 ft | 14 kts | 333° |
| 2026-04-30 14:08 | 52.16875 | 20.97088 | 336 ft | 12 kts | 340° |
| 2026-04-30 14:08 | 52.16909 | 20.97195 | 334 ft | 6 kts | 76° |
| 2026-04-30 14:09 | 52.16913 | 20.97222 | 335 ft | 0 kts | 75° |
| 2026-04-30 14:09 | 52.16914 | 20.97225 | 338 ft | 0 kts | 75° |